sensor_id;sensor_type;location;lat;lon;timestamp;P1;durP1;ratioP1;P2;durP2;ratioP2
47239;SDS011;32978;53.586;10.052;2023-05-06T00:00:12;11.35;;;7.13;;
47239;SDS011;32978;53.586;10.052;2023-05-06T00:05:12;12.32;;;7.68;;
47239;SDS011;32978;53.586;10.052;2023-05-06T00:10:09;28.90;;;19.23;;
47239;SDS011;32978;53.586;10.052;2023-05-06T00:15:05;23.52;;;7.97;;
47239;SDS011;32978;53.586;10.052;2023-05-06T00:20:03;11.70;;;6.78;;
47239;SDS011;32978;53.586;10.052;2023-05-06T00:25:01;9.85;;;7.15;;
47239;SDS011;32978;53.586;10.052;2023-05-06T00:29:57;10.25;;;6.57;;
47239;SDS011;32978;53.586;10.052;2023-05-06T00:34:54;9.65;;;6.72;;
47239;SDS011;32978;53.586;10.052;2023-05-06T00:39:50;9.40;;;6.60;;
47239;SDS011;32978;53.586;10.052;2023-05-06T00:44:47;10.65;;;6.85;;
47239;SDS011;32978;53.586;10.052;2023-05-06T00:49:45;13.20;;;7.25;;
47239;SDS011;32978;53.586;10.052;2023-05-06T00:54:42;10.50;;;6.38;;
47239;SDS011;32978;53.586;10.052;2023-05-06T00:59:41;8.95;;;6.57;;
47239;SDS011;32978;53.586;10.052;2023-05-06T01:04:39;10.25;;;6.05;;
47239;SDS011;32978;53.586;10.052;2023-05-06T01:14:54;11.98;;;7.65;;
47239;SDS011;32978;53.586;10.052;2023-05-06T01:19:54;12.90;;;7.13;;
47239;SDS011;32978;53.586;10.052;2023-05-06T01:24:53;9.57;;;7.05;;
47239;SDS011;32978;53.586;10.052;2023-05-06T01:29:49;15.90;;;7.10;;
47239;SDS011;32978;53.586;10.052;2023-05-06T01:40:01;9.50;;;7.15;;
47239;SDS011;32978;53.586;10.052;2023-05-06T01:44:59;9.35;;;6.75;;
47239;SDS011;32978;53.586;10.052;2023-05-06T01:49:58;10.65;;;6.72;;
47239;SDS011;32978;53.586;10.052;2023-05-06T01:54:56;12.18;;;7.60;;
47239;SDS011;32978;53.586;10.052;2023-05-06T01:59:52;13.63;;;7.30;;
47239;SDS011;32978;53.586;10.052;2023-05-06T02:04:51;11.65;;;8.23;;
47239;SDS011;32978;53.586;10.052;2023-05-06T02:09:48;10.82;;;6.93;;
47239;SDS011;32978;53.586;10.052;2023-05-06T02:14:45;16.05;;;7.63;;
47239;SDS011;32978;53.586;10.052;2023-05-06T02:19:41;10.25;;;6.97;;
47239;SDS011;32978;53.586;10.052;2023-05-06T02:24:38;13.10;;;8.32;;
47239;SDS011;32978;53.586;10.052;2023-05-06T02:29:34;10.25;;;7.70;;
47239;SDS011;32978;53.586;10.052;2023-05-06T02:34:31;9.60;;;8.15;;
47239;SDS011;32978;53.586;10.052;2023-05-06T02:39:27;14.60;;;8.45;;
47239;SDS011;32978;53.586;10.052;2023-05-06T02:44:24;12.27;;;7.93;;
47239;SDS011;32978;53.586;10.052;2023-05-06T02:49:20;10.27;;;7.32;;
47239;SDS011;32978;53.586;10.052;2023-05-06T02:54:17;12.63;;;8.15;;
47239;SDS011;32978;53.586;10.052;2023-05-06T02:59:13;11.55;;;8.10;;
47239;SDS011;32978;53.586;10.052;2023-05-06T03:04:09;10.60;;;7.32;;
47239;SDS011;32978;53.586;10.052;2023-05-06T03:09:06;9.85;;;8.20;;
47239;SDS011;32978;53.586;10.052;2023-05-06T03:14:03;11.93;;;7.32;;
47239;SDS011;32978;53.586;10.052;2023-05-06T03:19:00;10.63;;;8.38;;
47239;SDS011;32978;53.586;10.052;2023-05-06T03:23:58;9.10;;;8.10;;
47239;SDS011;32978;53.586;10.052;2023-05-06T03:28:55;11.95;;;9.05;;
47239;SDS011;32978;53.586;10.052;2023-05-06T03:33:51;10.75;;;8.70;;
47239;SDS011;32978;53.586;10.052;2023-05-06T03:38:48;10.85;;;8.90;;
47239;SDS011;32978;53.586;10.052;2023-05-06T03:43:44;12.23;;;8.95;;
47239;SDS011;32978;53.586;10.052;2023-05-06T03:48:43;9.75;;;8.18;;
47239;SDS011;32978;53.586;10.052;2023-05-06T03:53:40;11.30;;;7.97;;
47239;SDS011;32978;53.586;10.052;2023-05-06T03:58:36;10.00;;;8.75;;
47239;SDS011;32978;53.586;10.052;2023-05-06T04:03:33;10.80;;;8.48;;
47239;SDS011;32978;53.586;10.052;2023-05-06T04:08:29;12.07;;;8.10;;
47239;SDS011;32978;53.586;10.052;2023-05-06T04:13:26;10.60;;;8.88;;
47239;SDS011;32978;53.586;10.052;2023-05-06T04:18:22;11.65;;;8.13;;
47239;SDS011;32978;53.586;10.052;2023-05-06T04:23:19;12.15;;;8.10;;
47239;SDS011;32978;53.586;10.052;2023-05-06T04:28:16;9.32;;;8.05;;
47239;SDS011;32978;53.586;10.052;2023-05-06T04:33:12;10.55;;;8.02;;
47239;SDS011;32978;53.586;10.052;2023-05-06T04:38:10;9.55;;;8.25;;
47239;SDS011;32978;53.586;10.052;2023-05-06T04:43:06;10.25;;;9.18;;
47239;SDS011;32978;53.586;10.052;2023-05-06T04:48:03;11.35;;;8.85;;
47239;SDS011;32978;53.586;10.052;2023-05-06T04:53:00;9.85;;;8.18;;
47239;SDS011;32978;53.586;10.052;2023-05-06T04:57:56;10.43;;;8.40;;
47239;SDS011;32978;53.586;10.052;2023-05-06T05:02:52;15.50;;;9.57;;
47239;SDS011;32978;53.586;10.052;2023-05-06T05:07:52;9.07;;;7.90;;
47239;SDS011;32978;53.586;10.052;2023-05-06T05:12:48;11.95;;;9.45;;
47239;SDS011;32978;53.586;10.052;2023-05-06T05:17:45;11.32;;;8.95;;
47239;SDS011;32978;53.586;10.052;2023-05-06T05:22:42;9.60;;;8.65;;
47239;SDS011;32978;53.586;10.052;2023-05-06T05:27:39;11.13;;;9.77;;
47239;SDS011;32978;53.586;10.052;2023-05-06T05:32:37;11.00;;;9.43;;
47239;SDS011;32978;53.586;10.052;2023-05-06T05:37:33;11.20;;;9.25;;
47239;SDS011;32978;53.586;10.052;2023-05-06T05:42:30;10.10;;;9.10;;
47239;SDS011;32978;53.586;10.052;2023-05-06T05:47:28;13.27;;;9.93;;
47239;SDS011;32978;53.586;10.052;2023-05-06T05:52:26;10.48;;;9.20;;
47239;SDS011;32978;53.586;10.052;2023-05-06T05:57:23;16.60;;;10.25;;
47239;SDS011;32978;53.586;10.052;2023-05-06T06:02:19;15.27;;;9.80;;
47239;SDS011;32978;53.586;10.052;2023-05-06T06:07:16;11.30;;;10.20;;
47239;SDS011;32978;53.586;10.052;2023-05-06T06:12:14;16.13;;;9.82;;
47239;SDS011;32978;53.586;10.052;2023-05-06T06:17:10;15.98;;;10.70;;
47239;SDS011;32978;53.586;10.052;2023-05-06T06:22:07;13.40;;;10.07;;
47239;SDS011;32978;53.586;10.052;2023-05-06T06:27:03;12.45;;;9.95;;
47239;SDS011;32978;53.586;10.052;2023-05-06T06:32:01;17.27;;;10.48;;
47239;SDS011;32978;53.586;10.052;2023-05-06T06:36:59;15.35;;;10.25;;
47239;SDS011;32978;53.586;10.052;2023-05-06T06:41:55;11.23;;;9.52;;
47239;SDS011;32978;53.586;10.052;2023-05-06T06:46:53;12.25;;;10.00;;
47239;SDS011;32978;53.586;10.052;2023-05-06T06:51:50;11.15;;;9.88;;
47239;SDS011;32978;53.586;10.052;2023-05-06T06:56:47;11.05;;;9.95;;
47239;SDS011;32978;53.586;10.052;2023-05-06T07:01:43;14.40;;;9.52;;
47239;SDS011;32978;53.586;10.052;2023-05-06T07:06:40;10.82;;;9.80;;
47239;SDS011;32978;53.586;10.052;2023-05-06T07:11:36;14.40;;;10.70;;
47239;SDS011;32978;53.586;10.052;2023-05-06T07:16:33;13.90;;;10.20;;
47239;SDS011;32978;53.586;10.052;2023-05-06T07:21:29;11.70;;;10.13;;
47239;SDS011;32978;53.586;10.052;2023-05-06T07:26:29;16.52;;;12.18;;
47239;SDS011;32978;53.586;10.052;2023-05-06T07:31:25;11.23;;;10.05;;
47239;SDS011;32978;53.586;10.052;2023-05-06T07:36:22;13.45;;;10.85;;
47239;SDS011;32978;53.586;10.052;2023-05-06T07:41:18;15.48;;;10.55;;
47239;SDS011;32978;53.586;10.052;2023-05-06T07:46:16;15.50;;;10.88;;
47239;SDS011;32978;53.586;10.052;2023-05-06T07:51:12;12.45;;;9.82;;
47239;SDS011;32978;53.586;10.052;2023-05-06T07:56:12;14.52;;;11.65;;
47239;SDS011;32978;53.586;10.052;2023-05-06T08:01:09;13.40;;;11.00;;
47239;SDS011;32978;53.586;10.052;2023-05-06T08:06:05;10.63;;;9.63;;
47239;SDS011;32978;53.586;10.052;2023-05-06T08:11:02;11.95;;;10.15;;
47239;SDS011;32978;53.586;10.052;2023-05-06T08:15:58;12.02;;;10.10;;
47239;SDS011;32978;53.586;10.052;2023-05-06T08:20:57;11.52;;;10.43;;
47239;SDS011;32978;53.586;10.052;2023-05-06T08:25:54;15.80;;;11.70;;
47239;SDS011;32978;53.586;10.052;2023-05-06T08:30:50;11.48;;;9.98;;
47239;SDS011;32978;53.586;10.052;2023-05-06T08:35:47;13.05;;;11.05;;
47239;SDS011;32978;53.586;10.052;2023-05-06T08:40:44;17.92;;;11.82;;
47239;SDS011;32978;53.586;10.052;2023-05-06T08:45:44;11.27;;;10.10;;
47239;SDS011;32978;53.586;10.052;2023-05-06T08:50:41;10.95;;;9.68;;
47239;SDS011;32978;53.586;10.052;2023-05-06T08:55:42;14.93;;;9.75;;
47239;SDS011;32978;53.586;10.052;2023-05-06T09:05:38;12.98;;;11.18;;
47239;SDS011;32978;53.586;10.052;2023-05-06T09:10:43;13.63;;;11.00;;
47239;SDS011;32978;53.586;10.052;2023-05-06T09:15:41;11.38;;;10.10;;
47239;SDS011;32978;53.586;10.052;2023-05-06T09:20:40;13.07;;;10.85;;
47239;SDS011;32978;53.586;10.052;2023-05-06T09:25:39;13.75;;;11.65;;
47239;SDS011;32978;53.586;10.052;2023-05-06T09:30:43;14.77;;;10.52;;
47239;SDS011;32978;53.586;10.052;2023-05-06T09:35:43;13.15;;;10.65;;
47239;SDS011;32978;53.586;10.052;2023-05-06T09:40:39;17.30;;;11.95;;
47239;SDS011;32978;53.586;10.052;2023-05-06T09:45:36;12.50;;;10.35;;
47239;SDS011;32978;53.586;10.052;2023-05-06T09:50:32;13.10;;;10.38;;
47239;SDS011;32978;53.586;10.052;2023-05-06T09:55:31;12.30;;;9.95;;
47239;SDS011;32978;53.586;10.052;2023-05-06T10:00:28;13.35;;;11.10;;
47239;SDS011;32978;53.586;10.052;2023-05-06T10:05:26;17.38;;;11.43;;
47239;SDS011;32978;53.586;10.052;2023-05-06T10:10:24;15.63;;;12.27;;
47239;SDS011;32978;53.586;10.052;2023-05-06T10:15:23;15.07;;;10.82;;
47239;SDS011;32978;53.586;10.052;2023-05-06T10:20:21;17.05;;;11.40;;
47239;SDS011;32978;53.586;10.052;2023-05-06T10:25:25;12.18;;;10.88;;
47239;SDS011;32978;53.586;10.052;2023-05-06T10:30:27;21.67;;;13.13;;
47239;SDS011;32978;53.586;10.052;2023-05-06T10:35:34;13.02;;;10.93;;
47239;SDS011;32978;53.586;10.052;2023-05-06T10:40:36;13.02;;;11.23;;
47239;SDS011;32978;53.586;10.052;2023-05-06T10:56:11;13.68;;;11.55;;
47239;SDS011;32978;53.586;10.052;2023-05-06T11:01:08;18.23;;;11.70;;
47239;SDS011;32978;53.586;10.052;2023-05-06T11:06:06;18.98;;;12.45;;
47239;SDS011;32978;53.586;10.052;2023-05-06T11:16:46;15.88;;;13.07;;
47239;SDS011;32978;53.586;10.052;2023-05-06T11:21:44;17.23;;;13.52;;
47239;SDS011;32978;53.586;10.052;2023-05-06T11:26:41;14.93;;;11.38;;
47239;SDS011;32978;53.586;10.052;2023-05-06T11:31:38;14.18;;;12.40;;
47239;SDS011;32978;53.586;10.052;2023-05-06T11:36:37;15.57;;;11.80;;
47239;SDS011;32978;53.586;10.052;2023-05-06T11:41:41;14.88;;;11.10;;
47239;SDS011;32978;53.586;10.052;2023-05-06T11:46:37;15.48;;;12.15;;
47239;SDS011;32978;53.586;10.052;2023-05-06T11:51:34;14.98;;;12.98;;
47239;SDS011;32978;53.586;10.052;2023-05-06T11:56:40;15.00;;;12.75;;
47239;SDS011;32978;53.586;10.052;2023-05-06T12:01:41;15.10;;;12.55;;
47239;SDS011;32978;53.586;10.052;2023-05-06T12:06:38;17.02;;;13.20;;
47239;SDS011;32978;53.586;10.052;2023-05-06T12:11:35;14.75;;;11.82;;
47239;SDS011;32978;53.586;10.052;2023-05-06T12:16:33;14.57;;;11.88;;
47239;SDS011;32978;53.586;10.052;2023-05-06T12:21:31;16.48;;;12.50;;
47239;SDS011;32978;53.586;10.052;2023-05-06T12:26:28;16.25;;;12.90;;
47239;SDS011;32978;53.586;10.052;2023-05-06T12:31:38;15.63;;;12.40;;
47239;SDS011;32978;53.586;10.052;2023-05-06T12:36:38;18.25;;;11.52;;
47239;SDS011;32978;53.586;10.052;2023-05-06T12:41:42;14.55;;;11.35;;
47239;SDS011;32978;53.586;10.052;2023-05-06T12:46:48;13.68;;;11.30;;
47239;SDS011;32978;53.586;10.052;2023-05-06T12:51:45;15.40;;;11.73;;
47239;SDS011;32978;53.586;10.052;2023-05-06T12:56:43;16.92;;;12.27;;
47239;SDS011;32978;53.586;10.052;2023-05-06T13:01:40;14.98;;;11.43;;
47239;SDS011;32978;53.586;10.052;2023-05-06T13:06:36;14.65;;;12.43;;
47239;SDS011;32978;53.586;10.052;2023-05-06T13:11:33;13.63;;;10.70;;
47239;SDS011;32978;53.586;10.052;2023-05-06T13:16:29;13.23;;;11.20;;
47239;SDS011;32978;53.586;10.052;2023-05-06T13:21:27;18.83;;;11.20;;
47239;SDS011;32978;53.586;10.052;2023-05-06T13:26:26;14.88;;;11.30;;
47239;SDS011;32978;53.586;10.052;2023-05-06T13:31:23;13.10;;;11.00;;
47239;SDS011;32978;53.586;10.052;2023-05-06T13:36:24;13.63;;;11.70;;
47239;SDS011;32978;53.586;10.052;2023-05-06T13:41:21;16.42;;;13.02;;
47239;SDS011;32978;53.586;10.052;2023-05-06T13:46:18;12.95;;;11.23;;
47239;SDS011;32978;53.586;10.052;2023-05-06T13:51:14;14.40;;;11.15;;
47239;SDS011;32978;53.586;10.052;2023-05-06T13:56:11;14.80;;;11.88;;
47239;SDS011;32978;53.586;10.052;2023-05-06T14:01:07;13.00;;;11.00;;
47239;SDS011;32978;53.586;10.052;2023-05-06T14:06:04;14.65;;;10.95;;
47239;SDS011;32978;53.586;10.052;2023-05-06T14:11:02;16.20;;;10.63;;
47239;SDS011;32978;53.586;10.052;2023-05-06T14:15:59;14.60;;;11.52;;
47239;SDS011;32978;53.586;10.052;2023-05-06T14:20:55;14.38;;;11.07;;
47239;SDS011;32978;53.586;10.052;2023-05-06T14:25:52;13.00;;;11.40;;
47239;SDS011;32978;53.586;10.052;2023-05-06T14:30:49;15.25;;;11.40;;
47239;SDS011;32978;53.586;10.052;2023-05-06T14:35:46;13.13;;;10.57;;
47239;SDS011;32978;53.586;10.052;2023-05-06T14:40:48;12.50;;;10.18;;
47239;SDS011;32978;53.586;10.052;2023-05-06T14:45:45;15.23;;;11.43;;
47239;SDS011;32978;53.586;10.052;2023-05-06T14:50:42;13.80;;;10.65;;
47239;SDS011;32978;53.586;10.052;2023-05-06T14:55:38;13.07;;;11.00;;
47239;SDS011;32978;53.586;10.052;2023-05-06T15:00:36;13.57;;;10.85;;
47239;SDS011;32978;53.586;10.052;2023-05-06T15:05:32;12.95;;;10.98;;
47239;SDS011;32978;53.586;10.052;2023-05-06T15:10:32;17.42;;;10.70;;
47239;SDS011;32978;53.586;10.052;2023-05-06T15:15:28;13.85;;;10.60;;
47239;SDS011;32978;53.586;10.052;2023-05-06T15:20:25;14.98;;;11.25;;
47239;SDS011;32978;53.586;10.052;2023-05-06T15:25:21;13.48;;;10.82;;
47239;SDS011;32978;53.586;10.052;2023-05-06T15:30:30;17.80;;;11.93;;
47239;SDS011;32978;53.586;10.052;2023-05-06T15:35:26;17.58;;;11.77;;
47239;SDS011;32978;53.586;10.052;2023-05-06T15:40:23;17.67;;;12.65;;
47239;SDS011;32978;53.586;10.052;2023-05-06T15:45:21;19.20;;;13.32;;
47239;SDS011;32978;53.586;10.052;2023-05-06T15:50:17;18.65;;;13.32;;
47239;SDS011;32978;53.586;10.052;2023-05-06T15:55:28;17.48;;;13.75;;
47239;SDS011;32978;53.586;10.052;2023-05-06T16:00:25;19.83;;;14.85;;
47239;SDS011;32978;53.586;10.052;2023-05-06T16:05:22;19.45;;;14.20;;
47239;SDS011;32978;53.586;10.052;2023-05-06T16:10:19;21.10;;;15.07;;
47239;SDS011;32978;53.586;10.052;2023-05-06T16:15:15;20.23;;;15.77;;
47239;SDS011;32978;53.586;10.052;2023-05-06T16:20:12;16.75;;;12.75;;
47239;SDS011;32978;53.586;10.052;2023-05-06T16:25:09;20.63;;;16.02;;
47239;SDS011;32978;53.586;10.052;2023-05-06T16:30:05;19.30;;;14.40;;
47239;SDS011;32978;53.586;10.052;2023-05-06T16:35:03;20.38;;;16.00;;
47239;SDS011;32978;53.586;10.052;2023-05-06T16:40:00;21.05;;;14.50;;
47239;SDS011;32978;53.586;10.052;2023-05-06T16:44:57;20.63;;;15.45;;
47239;SDS011;32978;53.586;10.052;2023-05-06T16:49:54;22.67;;;15.20;;
47239;SDS011;32978;53.586;10.052;2023-05-06T16:54:51;21.42;;;15.27;;
47239;SDS011;32978;53.586;10.052;2023-05-06T16:59:47;25.65;;;15.10;;
47239;SDS011;32978;53.586;10.052;2023-05-06T17:04:43;20.05;;;15.75;;
47239;SDS011;32978;53.586;10.052;2023-05-06T17:09:40;20.63;;;15.38;;
47239;SDS011;32978;53.586;10.052;2023-05-06T17:14:37;18.88;;;14.55;;
47239;SDS011;32978;53.586;10.052;2023-05-06T17:19:33;18.35;;;15.27;;
47239;SDS011;32978;53.586;10.052;2023-05-06T17:24:29;19.67;;;14.68;;
47239;SDS011;32978;53.586;10.052;2023-05-06T17:29:26;19.95;;;16.00;;
47239;SDS011;32978;53.586;10.052;2023-05-06T17:34:23;19.10;;;15.82;;
47239;SDS011;32978;53.586;10.052;2023-05-06T17:39:19;18.55;;;16.10;;
47239;SDS011;32978;53.586;10.052;2023-05-06T17:44:16;17.63;;;13.85;;
47239;SDS011;32978;53.586;10.052;2023-05-06T17:49:13;26.08;;;16.27;;
47239;SDS011;32978;53.586;10.052;2023-05-06T17:54:09;18.15;;;14.88;;
47239;SDS011;32978;53.586;10.052;2023-05-06T17:59:06;19.55;;;15.55;;
47239;SDS011;32978;53.586;10.052;2023-05-06T18:04:03;23.23;;;16.67;;
47239;SDS011;32978;53.586;10.052;2023-05-06T18:09:00;19.38;;;15.52;;
47239;SDS011;32978;53.586;10.052;2023-05-06T18:13:56;21.58;;;15.82;;
47239;SDS011;32978;53.586;10.052;2023-05-06T18:18:53;19.45;;;13.82;;
47239;SDS011;32978;53.586;10.052;2023-05-06T18:23:49;19.00;;;14.38;;
47239;SDS011;32978;53.586;10.052;2023-05-06T18:28:53;20.17;;;15.00;;
47239;SDS011;32978;53.586;10.052;2023-05-06T18:33:51;20.25;;;14.38;;
47239;SDS011;32978;53.586;10.052;2023-05-06T18:38:47;22.88;;;15.60;;
47239;SDS011;32978;53.586;10.052;2023-05-06T18:43:43;20.95;;;14.63;;
47239;SDS011;32978;53.586;10.052;2023-05-06T18:48:41;17.52;;;13.75;;
47239;SDS011;32978;53.586;10.052;2023-05-06T18:53:37;18.67;;;14.80;;
47239;SDS011;32978;53.586;10.052;2023-05-06T18:58:34;20.40;;;15.88;;
47239;SDS011;32978;53.586;10.052;2023-05-06T19:03:32;17.02;;;13.95;;
47239;SDS011;32978;53.586;10.052;2023-05-06T19:08:29;17.05;;;13.05;;
47239;SDS011;32978;53.586;10.052;2023-05-06T19:13:27;18.58;;;14.45;;
47239;SDS011;32978;53.586;10.052;2023-05-06T19:18:24;17.02;;;12.90;;
47239;SDS011;32978;53.586;10.052;2023-05-06T19:23:20;23.67;;;15.10;;
47239;SDS011;32978;53.586;10.052;2023-05-06T19:28:17;21.42;;;15.52;;
47239;SDS011;32978;53.586;10.052;2023-05-06T19:33:13;24.05;;;14.95;;
47239;SDS011;32978;53.586;10.052;2023-05-06T19:38:10;24.40;;;15.85;;
47239;SDS011;32978;53.586;10.052;2023-05-06T19:43:06;22.83;;;16.05;;
47239;SDS011;32978;53.586;10.052;2023-05-06T19:48:03;19.30;;;15.25;;
47239;SDS011;32978;53.586;10.052;2023-05-06T19:53:00;20.90;;;15.40;;
47239;SDS011;32978;53.586;10.052;2023-05-06T19:57:57;24.08;;;16.73;;
47239;SDS011;32978;53.586;10.052;2023-05-06T20:02:56;21.77;;;15.70;;
47239;SDS011;32978;53.586;10.052;2023-05-06T20:07:55;21.48;;;14.90;;
47239;SDS011;32978;53.586;10.052;2023-05-06T20:12:52;19.60;;;15.43;;
47239;SDS011;32978;53.586;10.052;2023-05-06T20:17:53;24.17;;;16.20;;
47239;SDS011;32978;53.586;10.052;2023-05-06T20:22:49;22.15;;;15.82;;
47239;SDS011;32978;53.586;10.052;2023-05-06T20:27:47;20.67;;;15.82;;
47239;SDS011;32978;53.586;10.052;2023-05-06T20:32:44;23.50;;;15.30;;
47239;SDS011;32978;53.586;10.052;2023-05-06T20:37:41;20.40;;;15.95;;
47239;SDS011;32978;53.586;10.052;2023-05-06T20:42:39;22.70;;;16.50;;
47239;SDS011;32978;53.586;10.052;2023-05-06T20:47:36;21.75;;;17.55;;
47239;SDS011;32978;53.586;10.052;2023-05-06T20:52:33;22.30;;;15.50;;
47239;SDS011;32978;53.586;10.052;2023-05-06T20:57:33;19.33;;;15.73;;
47239;SDS011;32978;53.586;10.052;2023-05-06T21:02:29;20.23;;;15.55;;
47239;SDS011;32978;53.586;10.052;2023-05-06T21:07:36;16.95;;;14.73;;
47239;SDS011;32978;53.586;10.052;2023-05-06T21:12:33;19.10;;;14.27;;
47239;SDS011;32978;53.586;10.052;2023-05-06T21:17:30;18.35;;;14.13;;
47239;SDS011;32978;53.586;10.052;2023-05-06T21:22:27;18.75;;;14.40;;
47239;SDS011;32978;53.586;10.052;2023-05-06T21:27:24;21.15;;;16.05;;
47239;SDS011;32978;53.586;10.052;2023-05-06T21:32:21;19.08;;;14.43;;
47239;SDS011;32978;53.586;10.052;2023-05-06T21:37:18;18.23;;;13.45;;
47239;SDS011;32978;53.586;10.052;2023-05-06T21:42:15;15.15;;;13.40;;
47239;SDS011;32978;53.586;10.052;2023-05-06T21:47:11;19.10;;;14.60;;
47239;SDS011;32978;53.586;10.052;2023-05-06T21:52:08;17.45;;;14.13;;
47239;SDS011;32978;53.586;10.052;2023-05-06T21:57:05;18.73;;;12.90;;
47239;SDS011;32978;53.586;10.052;2023-05-06T22:02:04;17.25;;;13.40;;
47239;SDS011;32978;53.586;10.052;2023-05-06T22:07:00;14.98;;;12.75;;
47239;SDS011;32978;53.586;10.052;2023-05-06T22:11:57;17.33;;;14.32;;
47239;SDS011;32978;53.586;10.052;2023-05-06T22:16:53;13.95;;;11.23;;
47239;SDS011;32978;53.586;10.052;2023-05-06T22:21:50;13.95;;;12.50;;
47239;SDS011;32978;53.586;10.052;2023-05-06T22:26:46;12.82;;;11.40;;
47239;SDS011;32978;53.586;10.052;2023-05-06T22:31:43;13.27;;;10.88;;
47239;SDS011;32978;53.586;10.052;2023-05-06T22:36:39;14.18;;;11.93;;
47239;SDS011;32978;53.586;10.052;2023-05-06T22:41:36;13.82;;;10.30;;
47239;SDS011;32978;53.586;10.052;2023-05-06T22:46:32;14.10;;;11.10;;
47239;SDS011;32978;53.586;10.052;2023-05-06T22:51:29;13.52;;;10.93;;
47239;SDS011;32978;53.586;10.052;2023-05-06T22:56:27;11.57;;;10.07;;
47239;SDS011;32978;53.586;10.052;2023-05-06T23:01:23;13.65;;;9.93;;
47239;SDS011;32978;53.586;10.052;2023-05-06T23:06:23;12.93;;;10.88;;
47239;SDS011;32978;53.586;10.052;2023-05-06T23:11:20;12.60;;;10.60;;
47239;SDS011;32978;53.586;10.052;2023-05-06T23:16:17;15.57;;;10.75;;
47239;SDS011;32978;53.586;10.052;2023-05-06T23:21:13;11.85;;;9.52;;
47239;SDS011;32978;53.586;10.052;2023-05-06T23:26:10;14.02;;;11.07;;
47239;SDS011;32978;53.586;10.052;2023-05-06T23:31:06;15.88;;;11.35;;
47239;SDS011;32978;53.586;10.052;2023-05-06T23:36:03;12.88;;;11.02;;
47239;SDS011;32978;53.586;10.052;2023-05-06T23:40:59;13.05;;;11.55;;
47239;SDS011;32978;53.586;10.052;2023-05-06T23:45:59;12.25;;;10.18;;
47239;SDS011;32978;53.586;10.052;2023-05-06T23:50:55;15.40;;;10.55;;
47239;SDS011;32978;53.586;10.052;2023-05-06T23:55:52;13.25;;;10.35;;
